Time;durP1;ratioP1;P1;durP2;ratioP2;P2;SDS_P1;SDS_P2;PMS_P1;PMS_P2;Temp;Humidity;BMP_temperature;BMP_pressure;BME280_temperature;BME280_humidity;BME280_pressure;Samples;Min_cycle;Max_cycle;Signal;HPM_P1;HPM_P2
2022/11/15 00:02:56;;;;;;;51.80;35.93;;;6.00;1.00;;;;;;6287716;28;20622;-53
2022/11/15 00:06:03;;;;;;;44.93;33.60;;;6.30;1.00;;;;;;6297454;28;20245;-54
2022/11/15 00:09:06;;;;;;;49.33;35.47;;;6.00;1.00;;;;;;6293786;28;20229;-54
2022/11/15 00:12:13;;;;;;;50.23;35.27;;;5.90;1.00;;;;;;6301116;28;20422;-51
2022/11/15 00:15:16;;;;;;;49.37;34.43;;;5.80;1.00;;;;;;6300450;27;20244;-53
2022/11/15 00:18:19;;;;;;;44.17;35.67;;;6.20;1.00;;;;;;6284685;28;20245;-53
2022/11/15 00:21:22;;;;;;;47.33;36.00;;;6.10;1.00;;;;;;6286057;28;20233;-54
2022/11/15 00:24:25;;;;;;;54.80;36.30;;;5.90;1.00;;;;;;6285218;28;20241;-54
2022/11/15 00:27:29;;;;;;;52.30;36.57;;;5.70;1.00;;;;;;6300955;28;20605;-54
2022/11/15 00:30:32;;;;;;;53.27;37.93;;;5.90;1.00;;;;;;6284928;28;20237;-54
2022/11/15 00:33:35;;;;;;;49.60;35.33;;;5.80;1.00;;;;;;6285028;28;20757;-54
2022/11/15 00:36:38;;;;;;;47.63;34.87;;;5.80;1.00;;;;;;6291281;28;20243;-53
2022/11/15 00:39:45;;;;;;;52.73;34.93;;;5.80;1.00;;;;;;6292737;28;20236;-53
2022/11/15 00:42:49;;;;;;;48.87;34.93;;;5.80;1.00;;;;;;6297260;28;20232;-54
2022/11/15 00:45:52;;;;;;;52.27;35.57;;;5.80;1.00;;;;;;6308927;28;20263;-53
2022/11/15 00:48:55;;;;;;;48.60;35.43;;;5.80;1.00;;;;;;6309964;28;21198;-54
2022/11/15 00:52:02;;;;;;;52.43;37.17;;;5.80;1.00;;;;;;6288239;28;20621;-53
2022/11/15 00:55:06;;;;;;;49.23;36.40;;;5.80;1.00;;;;;;6300488;28;20237;-54
2022/11/15 00:58:10;;;;;;;52.17;34.67;;;5.70;1.00;;;;;;6299750;28;20511;-54
2022/11/15 01:01:15;;;;;;;53.07;35.80;;;5.70;1.00;;;;;;6302697;28;20479;-54
2022/11/15 01:04:18;;;;;;;49.40;35.27;;;5.80;1.00;;;;;;6293614;28;20444;-53
2022/11/15 01:07:21;;;;;;;52.37;35.50;;;5.70;1.00;;;;;;6296526;28;20698;-54
2022/11/15 01:10:25;;;;;;;51.57;35.13;;;5.70;1.00;;;;;;6293139;28;20777;-53
2022/11/15 01:13:37;;;;;;;49.40;33.57;;;5.50;1.00;;;;;;6300490;28;20890;-53
2022/11/15 01:16:40;;;;;;;53.03;35.77;;;5.60;1.00;;;;;;6298381;28;20233;-54
2022/11/15 01:19:43;;;;;;;53.03;37.60;;;5.50;1.00;;;;;;6295093;28;20226;-54
2022/11/15 01:22:46;;;;;;;48.43;34.73;;;5.70;1.00;;;;;;6300490;28;20568;-54
2022/11/15 01:25:49;;;;;;;47.27;34.83;;;5.60;1.00;;;;;;6294416;28;20221;-54
2022/11/15 01:28:54;;;;;;;51.17;34.47;;;5.50;1.00;;;;;;6296336;28;20293;-53
2022/11/15 01:31:57;;;;;;;49.83;35.23;;;5.60;1.00;;;;;;6307267;28;20657;-54
2022/11/15 01:35:00;;;;;;;47.07;33.43;;;5.60;1.00;;;;;;6303158;28;20290;-53
2022/11/15 01:38:04;;;;;;;45.17;34.00;;;5.50;1.00;;;;;;6294271;28;20629;-53
2022/11/15 01:41:07;;;;;;;48.13;34.77;;;5.40;1.00;;;;;;6292688;28;20600;-53
2022/11/15 01:44:47;;;;;;;53.03;36.40;;;5.60;1.00;;;;;;6291781;28;20249;-54
2022/11/15 01:47:53;;;;;;;48.03;34.33;;;5.40;1.00;;;;;;6282010;28;20229;-52
2022/11/15 01:50:56;;;;;;;57.63;37.07;;;5.50;1.00;;;;;;6293101;28;20610;-53
2022/11/15 01:54:04;;;;;;;50.83;35.73;;;5.40;1.00;;;;;;6308574;28;20232;-55
2022/11/15 01:57:10;;;;;;;51.30;34.77;;;5.20;1.00;;;;;;6305896;28;20237;-54
2022/11/15 02:00:16;;;;;;;52.93;36.93;;;5.20;1.00;;;;;;6307557;28;20740;-53
2022/11/15 02:03:22;;;;;;;50.27;37.17;;;5.50;1.00;;;;;;6307935;28;20244;-54
2022/11/15 02:06:26;;;;;;;47.97;34.07;;;5.40;1.00;;;;;;6302129;28;20228;-53
2022/11/15 02:09:29;;;;;;;51.53;35.50;;;5.30;1.00;;;;;;6290720;28;20230;-53
2022/11/15 02:12:32;;;;;;;51.10;34.70;;;5.30;1.00;;;;;;6285668;28;20237;-54
2022/11/15 02:15:44;;;;;;;52.73;36.53;;;5.30;1.00;;;;;;6288923;28;20230;-54
2022/11/15 02:18:53;;;;;;;58.63;37.83;;;5.30;1.00;;;;;;6281913;28;20236;-53
2022/11/15 02:22:11;;;;;;;51.67;35.20;;;5.40;1.00;;;;;;6281828;28;20245;-54
2022/11/15 02:25:35;;;;;;;48.37;35.53;;;5.40;1.00;;;;;;6285241;28;20249;-54
2022/11/15 02:28:56;;;;;;;53.80;37.20;;;5.40;1.00;;;;;;6305711;28;20229;-54
2022/11/15 02:32:06;;;;;;;56.13;36.87;;;5.40;1.00;;;;;;6282162;28;20618;-54
2022/11/15 02:35:19;;;;;;;50.43;36.27;;;5.20;1.00;;;;;;6283540;28;20233;-54
2022/11/15 02:38:30;;;;;;;52.90;36.87;;;5.50;1.00;;;;;;6287479;28;20722;-54
2022/11/15 02:41:40;;;;;;;52.43;35.27;;;5.40;1.00;;;;;;6295087;28;20230;-52
2022/11/15 02:44:45;;;;;;;55.40;37.57;;;5.20;1.00;;;;;;6288207;28;20619;-53
2022/11/15 02:47:52;;;;;;;51.60;36.10;;;5.40;1.00;;;;;;6281595;28;20260;-53
2022/11/15 02:50:58;;;;;;;51.03;35.73;;;5.10;1.00;;;;;;6282246;28;20244;-53
2022/11/15 02:54:01;;;;;;;53.00;35.87;;;5.30;1.00;;;;;;6282002;28;20245;-53
2022/11/15 02:57:07;;;;;;;50.10;36.37;;;5.20;1.00;;;;;;6281015;28;20502;-53
2022/11/15 03:00:13;;;;;;;48.23;34.20;;;5.30;1.00;;;;;;6282050;28;20241;-54
2022/11/15 03:03:48;;;;;;;53.87;35.63;;;5.20;1.00;;;;;;6281443;28;20237;-54
2022/11/15 03:06:54;;;;;;;50.13;34.03;;;5.50;1.00;;;;;;6282269;28;20251;-54
2022/11/15 03:10:05;;;;;;;57.10;38.63;;;5.20;1.00;;;;;;6301045;28;20233;-53
2022/11/15 03:13:18;;;;;;;50.23;36.63;;;5.20;1.00;;;;;;6292308;28;20237;-53
2022/11/15 03:16:25;;;;;;;45.70;33.57;;;5.10;1.00;;;;;;6282154;28;20233;-54
2022/11/15 03:19:44;;;;;;;46.33;32.97;;;5.30;1.00;;;;;;6279803;28;20225;-53
2022/11/15 03:22:50;;;;;;;51.37;35.63;;;5.30;1.00;;;;;;6282082;28;20500;-54
2022/11/15 03:25:55;;;;;;;53.17;37.60;;;5.50;1.00;;;;;;6293148;28;20240;-54
2022/11/15 03:29:04;;;;;;;49.73;34.73;;;5.40;1.00;;;;;;6306239;28;20490;-54
2022/11/15 03:32:14;;;;;;;44.97;34.00;;;5.30;1.00;;;;;;6293203;28;20573;-54
2022/11/15 03:35:21;;;;;;;53.37;36.47;;;5.20;1.00;;;;;;6281455;28;20245;-54
2022/11/15 03:38:26;;;;;;;49.73;34.77;;;5.20;1.00;;;;;;6295631;28;20499;-54
2022/11/15 03:41:35;;;;;;;54.70;37.67;;;5.30;1.00;;;;;;6292019;28;20696;-52
2022/11/15 03:44:43;;;;;;;50.63;35.03;;;5.40;1.00;;;;;;6302021;28;20728;-53
2022/11/15 03:47:50;;;;;;;52.90;34.63;;;5.30;1.00;;;;;;6296241;28;20232;-54
2022/11/15 03:50:55;;;;;;;54.37;37.93;;;5.20;1.00;;;;;;6287712;28;20237;-54
2022/11/15 03:53:58;;;;;;;51.87;37.87;;;5.20;1.00;;;;;;6281148;28;20343;-53
2022/11/15 03:57:01;;;;;;;51.40;34.60;;;5.40;1.00;;;;;;6280677;28;20237;-54
2022/11/15 04:00:04;;;;;;;51.00;35.37;;;5.40;1.00;;;;;;6281388;28;20275;-54
2022/11/15 04:03:08;;;;;;;51.40;35.97;;;5.10;1.00;;;;;;6280703;28;20249;-53
2022/11/15 04:06:12;;;;;;;52.27;37.40;;;5.10;1.00;;;;;;6284436;28;20228;-54
2022/11/15 04:09:15;;;;;;;53.47;35.77;;;5.30;1.00;;;;;;6297007;28;20483;-54
2022/11/15 04:12:30;;;;;;;52.07;36.47;;;5.10;1.00;;;;;;6292929;28;20241;-54
2022/11/15 04:15:34;;;;;;;57.77;36.47;;;5.20;1.00;;;;;;6286146;28;20726;-47
2022/11/15 04:18:37;;;;;;;45.50;33.17;;;5.20;1.00;;;;;;6278970;28;20632;-53
2022/11/15 04:25:26;;;;;;;55.27;36.37;;;5.40;1.00;;;;;;6286808;28;20441;-53
2022/11/15 04:28:34;;;;;;;48.20;35.23;;;5.10;1.00;;;;;;6303198;28;20240;-54
2022/11/15 04:31:37;;;;;;;49.13;33.00;;;5.10;1.00;;;;;;6295737;28;20293;-53
2022/11/15 04:34:40;;;;;;;47.47;34.33;;;5.20;1.00;;;;;;6302012;28;20247;-53
2022/11/15 04:37:45;;;;;;;51.87;36.77;;;5.20;1.00;;;;;;6292413;28;20398;-54
2022/11/15 04:40:51;;;;;;;48.43;34.27;;;5.20;1.00;;;;;;6288553;28;20828;-52
2022/11/15 04:43:54;;;;;;;50.10;35.90;;;5.30;1.00;;;;;;6295784;28;20233;-53
2022/11/15 04:46:58;;;;;;;50.17;34.20;;;5.20;1.00;;;;;;6303748;28;20228;-54
2022/11/15 04:50:01;;;;;;;50.87;34.90;;;5.30;1.00;;;;;;6289413;28;20641;-53
2022/11/15 04:53:05;;;;;;;50.10;36.57;;;5.20;1.00;;;;;;6295465;28;20642;-54
2022/11/15 04:56:08;;;;;;;49.30;35.47;;;5.10;1.00;;;;;;6303024;28;20237;-54
2022/11/15 04:59:12;;;;;;;51.83;35.93;;;5.10;1.00;;;;;;6297294;28;20238;-53
2022/11/15 05:02:15;;;;;;;50.97;34.33;;;5.30;1.00;;;;;;6298636;28;20241;-54
2022/11/15 05:05:21;;;;;;;52.93;34.23;;;5.00;1.00;;;;;;6283085;28;20256;-53
2022/11/15 05:08:25;;;;;;;50.00;35.17;;;5.20;1.00;;;;;;6292613;28;20248;-54
2022/11/15 05:11:28;;;;;;;52.30;37.83;;;5.20;1.00;;;;;;6296042;28;20248;-54
2022/11/15 05:14:31;;;;;;;53.37;37.73;;;5.10;1.00;;;;;;6284685;28;20237;-53
2022/11/15 05:17:34;;;;;;;51.20;35.33;;;5.10;1.00;;;;;;6297382;28;20233;-53
2022/11/15 05:20:37;;;;;;;52.47;35.17;;;5.20;1.00;;;;;;6283660;28;20650;-53
2022/11/15 05:23:42;;;;;;;53.20;34.97;;;5.00;1.00;;;;;;6288770;28;20237;-54
2022/11/15 05:26:45;;;;;;;52.67;35.50;;;5.10;1.00;;;;;;6292036;28;20248;-53
2022/11/15 05:29:48;;;;;;;46.00;33.67;;;5.10;1.00;;;;;;6295951;28;20241;-53
2022/11/15 05:32:51;;;;;;;42.63;31.27;;;5.00;1.00;;;;;;6289081;28;20241;-53
2022/11/15 05:36:01;;;;;;;46.30;31.83;;;5.10;1.00;;;;;;6301609;28;20232;-53
2022/11/15 05:39:07;;;;;;;42.87;31.60;;;4.90;1.00;;;;;;6287933;28;20236;-52
2022/11/15 05:42:14;;;;;;;45.40;32.07;;;5.10;1.00;;;;;;6295052;28;20225;-53
2022/11/15 05:45:17;;;;;;;55.73;36.00;;;5.10;1.00;;;;;;6303039;28;20424;-53
2022/11/15 05:48:28;;;;;;;46.17;32.87;;;5.20;1.00;;;;;;6299142;28;20240;-53
2022/11/15 05:51:31;;;;;;;51.23;36.10;;;5.20;1.00;;;;;;6293065;28;20609;-52
2022/11/15 05:54:37;;;;;;;50.53;36.57;;;5.10;1.00;;;;;;6300436;28;20241;-53
2022/11/15 05:57:40;;;;;;;50.97;34.13;;;5.00;1.00;;;;;;6288755;28;20243;-54
2022/11/15 06:00:44;;;;;;;52.70;36.40;;;5.10;1.00;;;;;;6289146;28;20233;-53
2022/11/15 06:03:46;;;;;;;44.47;33.30;;;5.10;1.00;;;;;;6290868;27;20248;-53
2022/11/15 06:06:49;;;;;;;44.47;33.17;;;5.10;1.00;;;;;;6300036;28;20229;-53
2022/11/15 06:09:54;;;;;;;50.47;35.80;;;5.20;1.00;;;;;;6298029;28;20235;-54
2022/11/15 06:12:58;;;;;;;50.23;34.43;;;5.00;1.00;;;;;;6300376;28;20236;-52
2022/11/15 06:16:06;;;;;;;52.93;34.87;;;5.10;1.00;;;;;;6293398;28;20650;-57
2022/11/15 06:19:09;;;;;;;52.20;35.97;;;5.10;1.00;;;;;;6291990;28;20264;-53
2022/11/15 06:22:12;;;;;;;56.57;37.30;;;5.00;1.00;;;;;;6286600;28;20236;-55
2022/11/15 06:25:26;;;;;;;52.10;35.43;;;5.10;1.00;;;;;;6296256;28;20280;-54
2022/11/15 06:28:29;;;;;;;47.90;34.63;;;5.10;1.00;;;;;;6294281;28;20240;-53
2022/11/15 06:31:34;;;;;;;53.80;35.07;;;5.10;1.00;;;;;;6295142;28;20243;-53
2022/11/15 06:34:36;;;;;;;54.30;36.40;;;5.00;1.00;;;;;;6290946;28;20252;-53
2022/11/15 06:37:40;;;;;;;61.03;37.60;;;5.20;1.00;;;;;;6292372;28;20233;-53
2022/11/15 06:40:44;;;;;;;57.37;36.40;;;5.30;1.00;;;;;;6297706;28;20743;-53
2022/11/15 06:43:47;;;;;;;58.03;36.80;;;5.10;1.00;;;;;;6293847;28;20462;-53
2022/11/15 06:46:50;;;;;;;55.47;37.53;;;5.20;1.00;;;;;;6282929;28;20232;-54
2022/11/15 06:49:53;;;;;;;54.70;37.43;;;5.50;1.00;;;;;;6296618;28;20240;-54
2022/11/15 06:53:01;;;;;;;47.47;33.00;;;5.40;1.00;;;;;;6289715;28;20239;-52
2022/11/15 06:56:09;;;;;;;50.37;35.47;;;5.40;1.00;;;;;;6287171;28;20229;-54
2022/11/15 06:59:12;;;;;;;53.13;34.90;;;5.40;1.00;;;;;;6292773;28;20237;-54
2022/11/15 07:02:15;;;;;;;54.27;37.03;;;5.40;1.00;;;;;;6295265;28;20233;-54
2022/11/15 07:05:18;;;;;;;53.07;34.90;;;5.40;1.00;;;;;;6292983;28;20238;-53
2022/11/15 07:08:21;;;;;;;53.63;35.63;;;5.40;1.00;;;;;;6293759;28;20241;-53
2022/11/15 07:11:25;;;;;;;47.30;34.13;;;5.40;1.00;;;;;;6294890;28;20253;-54
2022/11/15 07:14:28;;;;;;;52.23;36.53;;;5.50;1.00;;;;;;6285684;28;20376;-59
2022/11/15 07:17:33;;;;;;;54.20;36.30;;;5.60;1.00;;;;;;6284706;28;20786;-54
2022/11/15 07:20:36;;;;;;;52.30;35.77;;;5.50;1.00;;;;;;6295062;28;20278;-54
2022/11/15 07:23:40;;;;;;;55.50;36.97;;;5.50;1.00;;;;;;6293501;28;20708;-53
2022/11/15 07:26:44;;;;;;;48.37;34.93;;;5.50;1.00;;;;;;6288481;28;20275;-53
2022/11/15 07:29:47;;;;;;;50.87;35.57;;;5.50;1.00;;;;;;6295255;28;20229;-54
2022/11/15 07:32:54;;;;;;;50.20;32.90;;;5.90;1.00;;;;;;6288770;28;20600;-52
2022/11/15 07:36:02;;;;;;;52.53;37.10;;;5.70;1.00;;;;;;6284991;28;20397;-54
2022/11/15 07:39:05;;;;;;;49.83;34.57;;;5.90;1.00;;;;;;6294160;28;20296;-54
2022/11/15 07:45:33;;;;;;;52.10;35.70;;;6.00;1.00;;;;;;6275337;28;20391;-55
2022/11/15 07:48:36;;;;;;;57.60;38.57;;;6.00;1.00;;;;;;6295378;28;20498;-52
2022/11/15 07:51:46;;;;;;;50.47;37.30;;;6.00;1.00;;;;;;6283955;28;20234;-53
2022/11/15 07:54:49;;;;;;;54.20;36.87;;;6.10;1.00;;;;;;6291091;28;20616;-53
2022/11/15 07:57:54;;;;;;;53.13;37.47;;;6.40;1.00;;;;;;6292448;28;20233;-56
2022/11/15 08:00:57;;;;;;;47.97;35.53;;;6.10;1.00;;;;;;6298177;28;20221;-53
2022/11/15 08:04:00;;;;;;;53.40;36.53;;;6.30;1.00;;;;;;6302512;28;20266;-58
2022/11/15 08:07:03;;;;;;;53.47;36.50;;;6.40;1.00;;;;;;6285899;28;20237;-54
2022/11/15 08:10:07;;;;;;;51.13;35.77;;;6.50;1.00;;;;;;6293969;28;20312;-55
2022/11/15 08:13:13;;;;;;;44.27;33.27;;;6.70;1.00;;;;;;6300581;28;20428;-53
2022/11/15 08:16:16;;;;;;;50.33;35.97;;;6.60;1.00;;;;;;6289724;28;20343;-54
2022/11/15 08:19:19;;;;;;;41.40;31.63;;;6.90;1.00;;;;;;6295835;28;20593;-54
2022/11/15 08:22:22;;;;;;;50.73;35.73;;;6.90;1.00;;;;;;6287961;28;20323;-54
2022/11/15 08:25:26;;;;;;;44.90;33.67;;;6.80;1.00;;;;;;6289535;28;20266;-53
2022/11/15 08:28:30;;;;;;;49.53;34.80;;;7.10;1.00;;;;;;6287409;28;20689;-54
2022/11/15 08:31:33;;;;;;;50.90;33.87;;;7.20;1.00;;;;;;6284042;28;20240;-52
2022/11/15 08:34:36;;;;;;;46.53;33.90;;;7.30;1.00;;;;;;6298466;28;20488;-53
2022/11/15 08:37:39;;;;;;;47.50;33.03;;;7.50;1.00;;;;;;6297299;28;20638;-53
2022/11/15 08:40:42;;;;;;;42.00;32.97;;;7.70;1.00;;;;;;6297040;28;20228;-54
2022/11/15 08:43:46;;;;;;;46.97;34.13;;;7.90;1.00;;;;;;6291212;28;20237;-55
2022/11/15 08:46:55;;;;;;;43.53;33.53;;;7.80;1.00;;;;;;6284277;28;20237;-55
2022/11/15 08:49:58;;;;;;;45.10;34.37;;;7.90;1.00;;;;;;6291838;28;20277;-55
2022/11/15 08:53:06;;;;;;;46.53;31.80;;;7.90;1.00;;;;;;6301148;28;20259;-53
2022/11/15 08:56:10;;;;;;;41.33;32.03;;;8.10;1.00;;;;;;6302625;28;20396;-54
2022/11/15 08:59:14;;;;;;;41.77;31.87;;;8.20;1.00;;;;;;6303830;28;20264;-53
2022/11/15 09:02:17;;;;;;;38.97;30.57;;;8.60;1.00;;;;;;6294459;28;20248;-54
2022/11/15 09:05:21;;;;;;;42.87;32.83;;;8.50;1.00;;;;;;6285766;28;20240;-54
2022/11/15 09:08:24;;;;;;;37.47;31.00;;;8.70;1.00;;;;;;6300577;28;20237;-53
2022/11/15 09:11:47;;;;;;;38.83;30.47;;;8.80;1.00;;;;;;6304827;28;20241;-55
2022/11/15 09:14:51;;;;;;;37.63;30.00;;;8.90;1.00;;;;;;6297433;28;20233;-55
2022/11/15 09:18:06;;;;;;;38.23;30.33;;;9.10;1.00;;;;;;6298702;28;20229;-53
2022/11/15 09:21:10;;;;;;;39.00;29.37;;;9.20;1.00;;;;;;6291699;28;20633;-54
2022/11/15 09:24:17;;;;;;;34.00;27.37;;;9.30;1.00;;;;;;6286325;28;20301;-53
2022/11/15 09:27:28;;;;;;;32.93;28.17;;;9.50;1.00;;;;;;6298498;28;20233;-54
2022/11/15 09:30:33;;;;;;;32.37;26.30;;;9.60;1.00;;;;;;6286327;28;20904;-53
2022/11/15 09:33:38;;;;;;;32.80;25.20;;;9.80;1.00;;;;;;6294199;28;20499;-55
2022/11/15 09:36:41;;;;;;;28.13;24.90;;;9.90;1.00;;;;;;6297557;28;20756;-54
2022/11/15 09:39:44;;;;;;;31.57;24.73;;;10.10;1.00;;;;;;6299899;28;20720;-54
2022/11/15 09:43:05;;;;;;;31.17;23.90;;;10.20;1.00;;;;;;6296329;28;20240;-53
2022/11/15 09:46:18;;;;;;;27.80;23.67;;;10.30;1.00;;;;;;6290060;28;20602;-54
2022/11/15 09:49:23;;;;;;;25.90;21.60;;;10.30;1.00;;;;;;6298422;28;20407;-55
2022/11/15 09:52:26;;;;;;;23.90;21.27;;;10.40;1.00;;;;;;6293936;28;20375;-55
2022/11/15 09:55:37;;;;;;;23.00;20.47;;;10.60;1.00;;;;;;6286583;28;20286;-52
2022/11/15 09:58:50;;;;;;;24.80;18.77;;;10.80;1.00;;;;;;6294723;28;20228;-55
2022/11/15 10:02:05;;;;;;;23.63;21.13;;;10.80;1.00;;;;;;6297258;28;20252;-53
2022/11/15 10:05:13;;;;;;;23.20;18.50;;;10.90;1.00;;;;;;6299670;28;20328;-55
2022/11/15 10:08:32;;;;;;;24.53;20.00;;;11.00;1.00;;;;;;6286910;28;20764;-54
2022/11/15 10:11:39;;;;;;;24.67;20.67;;;11.10;1.00;;;;;;6284361;28;20305;-54
2022/11/15 10:14:43;;;;;;;23.57;20.13;;;11.20;1.00;;;;;;6299474;28;20263;-54
2022/11/15 10:18:05;;;;;;;22.57;20.20;;;11.30;1.00;;;;;;6295804;28;20232;-54
2022/11/15 10:21:21;;;;;;;23.33;19.77;;;11.40;1.00;;;;;;6297546;28;20225;-53
2022/11/15 10:24:28;;;;;;;22.37;19.03;;;11.40;1.00;;;;;;6300161;28;20233;-54
2022/11/15 10:27:32;;;;;;;20.53;18.27;;;11.60;1.00;;;;;;6293937;28;20237;-54
2022/11/15 10:30:37;;;;;;;22.73;19.63;;;11.70;1.00;;;;;;6281673;28;20237;-53
2022/11/15 10:33:42;;;;;;;22.77;20.37;;;11.80;1.00;;;;;;6287197;28;20718;-54
2022/11/15 10:36:46;;;;;;;23.67;20.47;;;11.90;1.00;;;;;;6290341;28;20316;-55
2022/11/15 10:40:04;;;;;;;22.23;19.90;;;12.00;1.00;;;;;;6293423;28;20241;-55
2022/11/15 10:43:15;;;;;;;20.90;18.60;;;12.10;1.00;;;;;;6296859;28;20251;-55
2022/11/15 10:46:21;;;;;;;22.90;19.90;;;12.30;1.00;;;;;;6288935;28;20237;-55
2022/11/15 10:50:00;;;;;;;23.00;19.30;;;12.40;1.00;;;;;;6285036;28;20391;-55
2022/11/15 10:53:04;;;;;;;22.23;19.93;;;12.60;1.00;;;;;;6287602;28;20240;-53
2022/11/15 10:56:12;;;;;;;20.80;18.70;;;12.60;1.00;;;;;;6294897;28;20237;-55
2022/11/15 10:59:20;;;;;;;26.10;19.87;;;12.80;1.00;;;;;;6281489;28;20248;-55
2022/11/15 11:02:32;;;;;;;23.30;19.53;;;12.90;1.00;;;;;;6294293;28;21244;-54
2022/11/15 11:05:38;;;;;;;21.90;19.00;;;13.00;1.00;;;;;;6296492;28;20236;-55
2022/11/15 11:08:57;;;;;;;19.73;17.70;;;13.10;1.00;;;;;;6291246;28;20725;-55
2022/11/15 11:12:01;;;;;;;21.07;18.07;;;13.20;1.00;;;;;;6290185;28;20226;-54
2022/11/15 11:15:14;;;;;;;20.23;18.13;;;13.20;1.00;;;;;;6293763;28;20233;-56
2022/11/15 11:18:24;;;;;;;18.47;16.47;;;13.20;1.00;;;;;;6291750;28;20260;-55
2022/11/15 11:21:41;;;;;;;20.83;18.53;;;13.30;1.00;;;;;;6302964;28;20233;-54
2022/11/15 11:24:49;;;;;;;21.47;18.57;;;13.30;1.00;;;;;;6287752;28;20336;-55
2022/11/15 11:28:02;;;;;;;22.77;18.30;;;13.30;1.00;;;;;;6296031;28;20236;-54
2022/11/15 11:31:20;;;;;;;21.13;18.17;;;13.40;1.00;;;;;;6288860;28;20225;-55
2022/11/15 11:34:42;;;;;;;19.90;17.80;;;13.40;1.00;;;;;;6302102;28;20229;-55
2022/11/15 11:37:50;;;;;;;19.53;17.30;;;13.50;1.00;;;;;;6296087;28;20792;-55
2022/11/15 11:41:04;;;;;;;21.00;18.80;;;13.50;1.00;;;;;;6294302;28;20639;-54
2022/11/15 11:44:20;;;;;;;20.90;18.73;;;13.60;1.00;;;;;;6293071;28;20245;-55
2022/11/15 11:47:27;;;;;;;19.70;17.67;;;13.50;1.00;;;;;;6293026;28;20229;-55
2022/11/15 11:50:31;;;;;;;19.47;17.53;;;13.60;1.00;;;;;;6292467;28;20233;-54
2022/11/15 11:53:41;;;;;;;22.53;19.57;;;13.70;1.00;;;;;;6295292;28;20240;-55
2022/11/15 11:56:46;;;;;;;21.20;18.97;;;13.70;1.00;;;;;;6292255;28;20245;-55
2022/11/15 11:59:54;;;;;;;21.67;18.93;;;13.70;1.00;;;;;;6294199;28;20284;-53
2022/11/15 12:03:06;;;;;;;19.27;17.30;;;13.70;1.00;;;;;;6295272;28;20257;-55
2022/11/15 12:06:28;;;;;;;19.20;17.03;;;13.80;1.00;;;;;;6287472;28;20642;-53
2022/11/15 12:09:37;;;;;;;18.57;16.67;;;13.80;1.00;;;;;;6303892;28;20241;-56
2022/11/15 12:12:50;;;;;;;19.00;17.10;;;13.90;1.00;;;;;;6292805;28;20229;-54
2022/11/15 12:15:59;;;;;;;18.93;16.93;;;14.00;1.00;;;;;;6294740;28;20225;-55
2022/11/15 12:19:08;;;;;;;18.53;16.47;;;14.00;1.00;;;;;;6293874;28;20256;-55
2022/11/15 12:22:18;;;;;;;15.80;14.13;;;14.10;1.00;;;;;;6307217;28;20237;-55
2022/11/15 12:25:29;;;;;;;19.53;16.87;;;14.20;1.00;;;;;;6293233;28;20237;-56
2022/11/15 12:28:39;;;;;;;19.23;17.23;;;14.20;1.00;;;;;;6292904;28;20241;-55
2022/11/15 12:32:25;;;;;;;19.57;17.47;;;14.10;1.00;;;;;;6290696;28;20224;-54
2022/11/15 12:35:33;;;;;;;17.33;15.60;;;14.00;1.00;;;;;;6298189;28;20690;-53
2022/11/15 12:38:55;;;;;;;17.50;15.47;;;13.90;1.00;;;;;;6293481;28;20277;-54
2022/11/15 12:42:32;;;;;;;18.57;16.67;;;14.00;1.00;;;;;;6292858;28;20271;-55
2022/11/15 12:45:38;;;;;;;18.27;16.37;;;14.00;1.00;;;;;;6298328;28;20241;-55
2022/11/15 12:48:59;;;;;;;20.57;18.57;;;14.10;1.00;;;;;;6303426;28;20247;-54
2022/11/15 12:52:08;;;;;;;18.30;16.30;;;14.10;1.00;;;;;;6293939;28;20233;-55
2022/11/15 12:55:32;;;;;;;19.50;16.30;;;14.10;1.00;;;;;;6296745;28;20669;-54
2022/11/15 12:58:43;;;;;;;19.00;17.03;;;14.10;1.00;;;;;;6284510;28;20241;-55
2022/11/15 13:02:00;;;;;;;17.70;15.87;;;14.10;1.00;;;;;;6295238;28;20232;-53
2022/11/15 13:05:54;;;;;;;18.60;16.60;;;14.10;1.00;;;;;;6297798;28;20245;-53
2022/11/15 13:08:57;;;;;;;21.80;17.63;;;14.10;1.00;;;;;;6212435;28;20463;-54
2022/11/15 13:12:01;;;;;;;18.90;16.80;;;14.10;1.00;;;;;;6213741;28;20236;-54
2022/11/15 13:15:34;;;;;;;16.90;15.23;;;14.10;1.00;;;;;;6294811;28;20388;-55
2022/11/15 13:18:54;;;;;;;21.03;17.17;;;14.00;1.00;;;;;;6293377;27;20229;-54
2022/11/15 13:25:22;;;;;;;17.27;15.50;;;13.90;1.00;;;;;;6297133;28;20233;-55
2022/11/15 13:28:33;;;;;;;19.97;15.83;;;13.90;1.00;;;;;;6298386;28;20251;-55
2022/11/15 13:31:44;;;;;;;18.43;16.00;;;13.90;1.00;;;;;;6293969;28;20642;-54
2022/11/15 13:34:52;;;;;;;17.20;15.50;;;13.80;1.00;;;;;;6294280;28;20233;-53
2022/11/15 13:37:57;;;;;;;20.10;15.87;;;13.80;1.00;;;;;;6293410;28;20890;-55
2022/11/15 13:41:14;;;;;;;21.20;15.97;;;13.80;1.00;;;;;;6285426;28;20608;-55
2022/11/15 13:44:21;;;;;;;15.17;13.67;;;13.70;1.00;;;;;;6291739;28;20302;-55
2022/11/15 13:47:27;;;;;;;16.67;14.97;;;13.70;1.00;;;;;;6286713;28;20241;-55
2022/11/15 13:50:35;;;;;;;18.60;15.70;;;13.60;1.00;;;;;;6284339;28;20316;-59
2022/11/15 13:53:42;;;;;;;17.10;14.93;;;13.60;1.00;;;;;;6283789;28;20237;-54
2022/11/15 13:56:49;;;;;;;15.80;14.23;;;13.50;1.00;;;;;;6290234;28;20244;-54
2022/11/15 13:59:55;;;;;;;14.80;13.33;;;13.40;1.00;;;;;;6285063;28;20236;-52
2022/11/15 14:03:05;;;;;;;13.73;12.53;;;13.40;1.00;;;;;;6284191;28;20400;-55
2022/11/15 14:06:11;;;;;;;14.93;13.37;;;13.30;1.00;;;;;;6297934;28;20237;-53
2022/11/15 14:09:37;;;;;;;16.00;14.40;;;13.20;1.00;;;;;;6288771;28;20364;-53
2022/11/15 14:12:40;;;;;;;22.00;16.33;;;13.10;1.00;;;;;;6286733;28;20272;-54
2022/11/15 14:15:44;;;;;;;17.23;14.23;;;13.00;1.00;;;;;;6288759;28;20229;-53
2022/11/15 14:18:49;;;;;;;19.47;16.30;;;12.90;1.00;;;;;;6293354;28;20240;-54
2022/11/15 14:22:13;;;;;;;16.40;14.70;;;12.90;1.00;;;;;;6288810;28;20244;-55
2022/11/15 14:25:20;;;;;;;17.03;15.40;;;12.80;1.00;;;;;;6296108;28;20237;-54
2022/11/15 14:28:32;;;;;;;16.10;14.50;;;12.80;1.00;;;;;;6286921;28;20238;-56
2022/11/15 14:31:36;;;;;;;18.33;16.13;;;12.70;1.00;;;;;;6286348;28;20310;-53
2022/11/15 14:34:45;;;;;;;16.70;15.03;;;12.60;1.00;;;;;;6277756;28;20229;-53
2022/11/15 14:37:50;;;;;;;17.80;16.03;;;12.50;1.00;;;;;;6295360;28;20245;-54
2022/11/15 14:40:59;;;;;;;16.90;15.20;;;12.50;1.00;;;;;;6296942;28;20455;-55
2022/11/15 14:44:02;;;;;;;17.83;15.60;;;12.40;1.00;;;;;;6301072;28;20240;-55
2022/11/15 14:47:05;;;;;;;26.67;17.50;;;12.40;1.00;;;;;;6289468;28;20233;-53
2022/11/15 14:50:12;;;;;;;16.57;14.83;;;12.40;1.00;;;;;;6298200;28;20233;-53
2022/11/15 14:53:19;;;;;;;16.90;15.30;;;12.30;1.00;;;;;;6288926;28;20624;-54
2022/11/15 14:56:22;;;;;;;17.50;15.40;;;12.20;1.00;;;;;;6295966;28;20244;-54
2022/11/15 14:59:25;;;;;;;18.83;16.93;;;12.10;1.00;;;;;;6296081;28;20457;-53
2022/11/15 15:02:28;;;;;;;17.97;15.57;;;12.00;1.00;;;;;;6289166;28;20594;-55
2022/11/15 15:05:34;;;;;;;18.97;17.00;;;12.00;1.00;;;;;;6291007;28;20407;-55
2022/11/15 15:08:38;;;;;;;19.47;16.80;;;11.90;1.00;;;;;;6289957;28;20545;-54
2022/11/15 15:11:41;;;;;;;17.57;15.77;;;11.80;1.00;;;;;;6290284;28;20237;-55
2022/11/15 15:14:44;;;;;;;26.37;17.33;;;11.70;1.00;;;;;;6300038;28;20625;-54
2022/11/15 15:17:47;;;;;;;20.97;17.43;;;11.70;1.00;;;;;;6294773;28;20251;-54
2022/11/15 15:20:59;;;;;;;23.50;17.40;;;11.60;1.00;;;;;;6292447;28;20243;-53
2022/11/15 15:24:04;;;;;;;24.63;17.37;;;11.60;1.00;;;;;;6301960;28;20729;-54
2022/11/15 15:27:07;;;;;;;22.47;17.87;;;11.50;1.00;;;;;;6290075;28;20236;-54
2022/11/15 15:30:11;;;;;;;21.53;16.63;;;11.40;1.00;;;;;;6293975;28;20243;-52
2022/11/15 15:33:15;;;;;;;19.30;17.23;;;11.40;1.00;;;;;;6287531;28;20247;-54
2022/11/15 15:36:19;;;;;;;20.97;18.53;;;11.30;1.00;;;;;;6288631;28;20241;-54
2022/11/15 15:39:23;;;;;;;22.13;17.67;;;11.20;1.00;;;;;;6288157;28;20237;-54
2022/11/15 15:42:26;;;;;;;19.40;16.70;;;11.20;1.00;;;;;;6300609;28;20236;-53
2022/11/15 15:45:30;;;;;;;22.83;17.17;;;11.20;1.00;;;;;;6273442;28;20693;-55
2022/11/15 15:48:36;;;;;;;24.80;16.67;;;11.10;1.00;;;;;;6290687;28;20237;-53
2022/11/15 15:51:39;;;;;;;31.40;19.00;;;11.00;1.00;;;;;;6287797;28;20241;-53
2022/11/15 15:54:44;;;;;;;22.20;17.97;;;11.00;1.00;;;;;;6289417;28;20610;-53
2022/11/15 15:57:47;;;;;;;24.47;18.47;;;11.00;1.00;;;;;;6293972;28;20233;-54
2022/11/15 16:00:50;;;;;;;21.00;17.10;;;10.80;1.00;;;;;;6294051;28;20252;-54
2022/11/15 16:03:53;;;;;;;17.80;16.00;;;10.80;1.00;;;;;;6297375;28;20275;-55
2022/11/15 16:07:00;;;;;;;20.57;18.10;;;10.70;1.00;;;;;;6287688;28;20229;-54
2022/11/15 16:10:19;;;;;;;21.87;18.70;;;10.60;1.00;;;;;;6290485;28;20233;-54
2022/11/15 16:13:23;;;;;;;26.37;19.47;;;10.60;1.00;;;;;;6296300;28;20325;-54
2022/11/15 16:16:26;;;;;;;20.93;18.83;;;10.50;1.00;;;;;;6288964;28;20233;-54
2022/11/15 16:19:29;;;;;;;18.90;16.90;;;10.50;1.00;;;;;;6296896;28;20240;-53
2022/11/15 16:22:31;;;;;;;22.37;19.60;;;10.40;1.00;;;;;;6300372;28;20745;-55